CheckWX is a tool to help pilots better visualize weather data.  It is not intended as a substitute for an official pre-flight weather briefing.

15:39:52 UTC

KSDY TAF
Sidney-Richland Regional Airport
Sidney, Montana, USA
KSDY 241120Z 2412/2512 VRB04KT P6SM BKN090 FM241500 27008KT P6SM BKN080 FM241800 27014KT P6SM -SHRA OVC050 FM250200 30009KT P6SM SCT070

Jun-24@
12:00 UTC

Jun-24 @ 12:00 UTC

Jun-24@
15:00 UTC

Jun-24 @ 15:00 UTC

KSDY 241120Z 2412/2512 VRB04KT P6SM BKN090

Expired

Wind
  • Variable at 4 KTS
Cloud Levels
  • Broken at 9,000' AGL

Jun-24@
15:00 UTC

Jun-24 @ 15:00 UTC

Jun-24@
18:00 UTC

Jun-24 @ 18:00 UTC

FM241500 27008KT P6SM BKN080

From

From Standard forecast or significant change

Wind
  • 270° at 8 KTS
Cloud Levels
  • Broken at 8,000' AGL

Jun-24@
18:00 UTC

Jun-24 @ 18:00 UTC

Jun-25@
02:00 UTC

Jun-25 @ 02:00 UTC

FM241800 27014KT P6SM -SHRA OVC050

From

From Standard forecast or significant change

Wind
  • 270° at 14 KTS
Conditions
Light Rain
Cloud Levels
  • Overcast at 5,000' AGL

Jun-25@
02:00 UTC

Jun-25 @ 02:00 UTC

Jun-25@
12:00 UTC

Jun-25 @ 12:00 UTC

FM250200 30009KT P6SM SCT070

From

From Standard forecast or significant change

Wind
  • 300° at 9 KTS
Cloud Levels
  • Scattered at 7,000' AGL